Terminal Aerodrome Forecast
Issued by NWS San Angelo, TX

Home | Current Version | Previous Version | Text Only | Print | Product List | Glossary On
Versions: 1 2 3 4 5 6 7 8 9 10 11 12
000
FTUS44 KSJT 302300
TAFABI
TAF
KABI 302326Z 3100/3124 09008KT P6SM BKN100
     FM310200 12009KT P6SM OVC040
     FM310900 14010KT 5SM -RA BR OVC015
     FM311500 14012KT 2SM RA BR OVC004=

USA.gov is the U.S. government's official web portal to all federal, state and local government web resources and services.